Date,TemperatureHighF,TemperatureAvgF,TemperatureLowF,DewpointHighF,DewpointAvgF,DewpointLowF,HumidityHigh,HumidityAvg,HumidityLow,PressureMaxIn,PressureMinIn,WindSpeedMaxMPH,WindSpeedAvgMPH,GustSpeedMaxMPH,PrecipitationSumIn
2013-2-1,17,7,-1,15,1,-6,90,77,68,30.28,30.06,12,6,16,0.00
2013-2-2,24,18,10,23,14,5,95,85,70,30.06,29.91,11,2,14,0.00
2013-2-3,23,20,13,19,15,9,95,83,71,29.98,29.86,13,3,16,0.00
2013-2-4,27,22,12,23,18,8,92,84,80,29.90,29.74,12,3,17,0.00
2013-2-5,33,25,13,30,22,9,100,86,80,30.01,29.72,14,3,16,0.00
2013-2-6,40,32,19,35,27,16,89,83,76,30.12,29.96,12,4,19,0.01
2013-2-7,36,34,30,34,33,29,99,97,89,29.98,29.79,8,2,14,0.42
2013-2-8,30,25,18,29,22,16,97,89,79,30.29,29.96,6,1,12,0.09
2013-2-9,33,28,19,30,26,18,95,91,86,30.29,29.94,17,3,23,0.01
2013-2-10,46,39,30,45,37,29,99,94,71,29.95,29.35,23,11,30,0.31
2013-2-11,41,33,27,35,26,22,82,78,75,29.98,29.43,27,10,28,0.01
2013-2-12,34,28,26,27,24,21,93,83,73,30.02,29.81,10,4,15,0.00
2013-2-13,43,34,25,35,30,24,96,86,69,29.81,29.63,8,3,13,0.00
2013-2-14,42,37,31,34,32,27,92,81,61,29.92,29.55,12,5,19,0.00
2013-2-15,32,26,18,29,18,10,93,70,51,30.13,29.92,10,3,16,0.00
2013-2-16,25,18,12,13,10,7,84,72,58,30.14,30.04,11,2,13,0.00
2013-2-17,34,23,11,25,16,7,85,74,58,30.10,29.82,14,6,21,0.00
2013-2-18,54,37,23,45,32,19,97,83,66,29.82,29.39,17,7,21,0.29
2013-2-19,22,14,10,19,10,5,89,82,76,30.04,29.59,13,5,18,0.06
2013-2-20,12,12,11,9,9,8,88,87,87,30.28,30.28,0,0,0,0.01
2013-2-21,28,21,11,26,18,8,95,89,86,30.28,29.85,15,5,27,0.01
2013-2-22,33,28,25,32,26,23,96,92,85,29.85,29.70,11,6,18,0.01
2013-2-23,30,25,19,23,20,15,89,82,73,29.90,29.83,9,4,16,0.01
2013-2-24,35,24,9,26,18,7,93,82,59,30.04,29.89,7,1,8,0.01
2013-2-25,40,31,20,31,26,18,93,83,69,30.05,29.85,7,2,12,0.01
2013-2-26,36,33,31,32,31,29,98,89,77,29.86,29.47,17,7,25,0.02
2013-2-27,35,32,30,33,31,29,97,95,91,29.70,29.50,8,1,12,0.20
2013-2-28,37,34,29,34,31,25,96,90,82,30.01,29.70,6,1,11,0.02